sensor_id;sensor_type;location;lat;lon;timestamp;temperature;humidity
58469;DHT22;44257;44.804;10.220;2022-10-16T00:01:30;18.30;99.90
58469;DHT22;44257;44.804;10.220;2022-10-16T00:03:57;18.30;99.90
58469;DHT22;44257;44.804;10.220;2022-10-16T00:06:24;18.30;99.90
58469;DHT22;44257;44.804;10.220;2022-10-16T00:08:51;18.20;99.90
58469;DHT22;44257;44.804;10.220;2022-10-16T00:11:25;18.20;99.90
58469;DHT22;44257;44.804;10.220;2022-10-16T00:13:55;18.20;99.90
58469;DHT22;44257;44.804;10.220;2022-10-16T00:16:22;18.20;99.90
58469;DHT22;44257;44.804;10.220;2022-10-16T00:18:47;18.20;99.90
58469;DHT22;44257;44.804;10.220;2022-10-16T00:21:17;18.20;99.90
58469;DHT22;44257;44.804;10.220;2022-10-16T00:23:43;18.20;99.90
58469;DHT22;44257;44.804;10.220;2022-10-16T00:26:12;18.30;99.90
58469;DHT22;44257;44.804;10.220;2022-10-16T00:28:38;18.30;99.90
58469;DHT22;44257;44.804;10.220;2022-10-16T00:31:07;18.30;99.90
58469;DHT22;44257;44.804;10.220;2022-10-16T00:33:33;18.30;99.90
58469;DHT22;44257;44.804;10.220;2022-10-16T00:36:00;18.30;99.90
58469;DHT22;44257;44.804;10.220;2022-10-16T00:38:27;18.40;99.90
58469;DHT22;44257;44.804;10.220;2022-10-16T00:40:53;18.40;99.90
58469;DHT22;44257;44.804;10.220;2022-10-16T00:46:29;18.40;99.90
58469;DHT22;44257;44.804;10.220;2022-10-16T00:49:05;18.40;99.90
58469;DHT22;44257;44.804;10.220;2022-10-16T00:51:38;18.40;99.90
58469;DHT22;44257;44.804;10.220;2022-10-16T00:54:09;18.40;99.90
58469;DHT22;44257;44.804;10.220;2022-10-16T00:56:36;18.30;99.90
58469;DHT22;44257;44.804;10.220;2022-10-16T00:59:04;18.30;99.90
58469;DHT22;44257;44.804;10.220;2022-10-16T01:01:32;18.30;99.90
58469;DHT22;44257;44.804;10.220;2022-10-16T01:03:57;18.20;99.90
58469;DHT22;44257;44.804;10.220;2022-10-16T01:06:39;18.20;99.90
58469;DHT22;44257;44.804;10.220;2022-10-16T01:14:30;18.30;99.90
58469;DHT22;44257;44.804;10.220;2022-10-16T01:17:04;18.30;99.90
58469;DHT22;44257;44.804;10.220;2022-10-16T01:22:17;18.40;99.90
58469;DHT22;44257;44.804;10.220;2022-10-16T01:24:48;18.40;99.90
58469;DHT22;44257;44.804;10.220;2022-10-16T01:27:22;18.40;99.90
58469;DHT22;44257;44.804;10.220;2022-10-16T01:33:03;18.40;99.90
58469;DHT22;44257;44.804;10.220;2022-10-16T01:35:30;18.50;99.90
58469;DHT22;44257;44.804;10.220;2022-10-16T01:40:31;18.40;99.90
58469;DHT22;44257;44.804;10.220;2022-10-16T01:43:10;18.40;99.90
58469;DHT22;44257;44.804;10.220;2022-10-16T01:45:38;18.40;99.90
58469;DHT22;44257;44.804;10.220;2022-10-16T01:48:06;18.40;99.90
58469;DHT22;44257;44.804;10.220;2022-10-16T01:50:38;18.40;99.90
58469;DHT22;44257;44.804;10.220;2022-10-16T01:53:07;18.40;99.90
58469;DHT22;44257;44.804;10.220;2022-10-16T01:55:38;18.30;99.90
58469;DHT22;44257;44.804;10.220;2022-10-16T01:58:08;18.30;99.90
58469;DHT22;44257;44.804;10.220;2022-10-16T02:00:37;18.30;99.90
58469;DHT22;44257;44.804;10.220;2022-10-16T02:03:04;18.30;99.90
58469;DHT22;44257;44.804;10.220;2022-10-16T02:05:36;18.20;99.90
58469;DHT22;44257;44.804;10.220;2022-10-16T02:08:04;18.20;99.90
58469;DHT22;44257;44.804;10.220;2022-10-16T02:10:30;18.20;99.90
58469;DHT22;44257;44.804;10.220;2022-10-16T02:13:06;18.20;99.90
58469;DHT22;44257;44.804;10.220;2022-10-16T02:15:32;18.10;99.90
58469;DHT22;44257;44.804;10.220;2022-10-16T02:17:58;18.10;99.90
58469;DHT22;44257;44.804;10.220;2022-10-16T02:20:27;18.00;99.90
58469;DHT22;44257;44.804;10.220;2022-10-16T02:22:54;18.00;99.90
58469;DHT22;44257;44.804;10.220;2022-10-16T02:25:31;18.00;99.90
58469;DHT22;44257;44.804;10.220;2022-10-16T02:28:02;18.00;99.90
58469;DHT22;44257;44.804;10.220;2022-10-16T02:30:42;17.90;99.90
58469;DHT22;44257;44.804;10.220;2022-10-16T02:33:11;17.90;99.90
58469;DHT22;44257;44.804;10.220;2022-10-16T02:35:40;17.90;99.90
58469;DHT22;44257;44.804;10.220;2022-10-16T02:38:08;17.90;99.90
58469;DHT22;44257;44.804;10.220;2022-10-16T02:40:34;17.80;99.90
58469;DHT22;44257;44.804;10.220;2022-10-16T02:43:04;17.80;99.90
58469;DHT22;44257;44.804;10.220;2022-10-16T02:45:30;17.80;99.90
58469;DHT22;44257;44.804;10.220;2022-10-16T02:47:56;17.80;99.90
58469;DHT22;44257;44.804;10.220;2022-10-16T02:50:22;17.70;99.90
58469;DHT22;44257;44.804;10.220;2022-10-16T02:52:49;17.70;99.90
58469;DHT22;44257;44.804;10.220;2022-10-16T02:55:15;17.70;99.90
58469;DHT22;44257;44.804;10.220;2022-10-16T02:57:41;17.80;99.90
58469;DHT22;44257;44.804;10.220;2022-10-16T03:00:09;17.80;99.90
58469;DHT22;44257;44.804;10.220;2022-10-16T03:02:36;17.80;99.90
58469;DHT22;44257;44.804;10.220;2022-10-16T03:05:02;17.80;99.90
58469;DHT22;44257;44.804;10.220;2022-10-16T03:07:27;17.80;99.90
58469;DHT22;44257;44.804;10.220;2022-10-16T03:09:53;17.80;99.90
58469;DHT22;44257;44.804;10.220;2022-10-16T03:12:20;17.80;99.90
58469;DHT22;44257;44.804;10.220;2022-10-16T03:14:45;17.80;99.90
58469;DHT22;44257;44.804;10.220;2022-10-16T03:17:11;17.80;99.90
58469;DHT22;44257;44.804;10.220;2022-10-16T03:19:39;17.80;99.90
58469;DHT22;44257;44.804;10.220;2022-10-16T03:22:05;17.80;99.90
58469;DHT22;44257;44.804;10.220;2022-10-16T03:24:30;17.80;99.90
58469;DHT22;44257;44.804;10.220;2022-10-16T03:26:56;17.80;99.90
58469;DHT22;44257;44.804;10.220;2022-10-16T03:29:23;17.70;99.90
58469;DHT22;44257;44.804;10.220;2022-10-16T03:31:49;17.70;99.90
58469;DHT22;44257;44.804;10.220;2022-10-16T03:34:15;17.70;99.90
58469;DHT22;44257;44.804;10.220;2022-10-16T03:36:41;17.70;99.90
58469;DHT22;44257;44.804;10.220;2022-10-16T03:39:07;17.70;99.90
58469;DHT22;44257;44.804;10.220;2022-10-16T03:41:32;17.70;99.90
58469;DHT22;44257;44.804;10.220;2022-10-16T03:43:58;17.60;99.90
58469;DHT22;44257;44.804;10.220;2022-10-16T03:46:24;17.60;99.90
58469;DHT22;44257;44.804;10.220;2022-10-16T03:48:50;17.60;99.90
58469;DHT22;44257;44.804;10.220;2022-10-16T03:51:15;17.60;99.90
58469;DHT22;44257;44.804;10.220;2022-10-16T03:53:41;17.60;99.90
58469;DHT22;44257;44.804;10.220;2022-10-16T03:56:07;17.60;99.90
58469;DHT22;44257;44.804;10.220;2022-10-16T03:58:33;17.60;99.90
58469;DHT22;44257;44.804;10.220;2022-10-16T04:00:59;17.60;99.90
58469;DHT22;44257;44.804;10.220;2022-10-16T04:03:25;17.60;99.90
58469;DHT22;44257;44.804;10.220;2022-10-16T04:05:51;17.60;99.90
58469;DHT22;44257;44.804;10.220;2022-10-16T04:08:17;17.60;99.90
58469;DHT22;44257;44.804;10.220;2022-10-16T04:10:43;17.60;99.90
58469;DHT22;44257;44.804;10.220;2022-10-16T04:13:10;17.60;99.90
58469;DHT22;44257;44.804;10.220;2022-10-16T04:15:36;17.50;99.90
58469;DHT22;44257;44.804;10.220;2022-10-16T04:18:02;17.60;99.90
58469;DHT22;44257;44.804;10.220;2022-10-16T04:20:28;17.50;99.90
58469;DHT22;44257;44.804;10.220;2022-10-16T04:22:55;17.50;99.90
58469;DHT22;44257;44.804;10.220;2022-10-16T04:25:21;17.50;99.90
58469;DHT22;44257;44.804;10.220;2022-10-16T04:27:47;17.40;99.90
58469;DHT22;44257;44.804;10.220;2022-10-16T04:30:13;17.40;99.90
58469;DHT22;44257;44.804;10.220;2022-10-16T04:32:39;17.30;99.90
58469;DHT22;44257;44.804;10.220;2022-10-16T04:35:06;17.20;99.90
58469;DHT22;44257;44.804;10.220;2022-10-16T04:37:32;17.20;99.90
58469;DHT22;44257;44.804;10.220;2022-10-16T04:39:58;17.20;99.90
58469;DHT22;44257;44.804;10.220;2022-10-16T04:42:24;17.10;99.90
58469;DHT22;44257;44.804;10.220;2022-10-16T04:44:50;17.00;99.90
58469;DHT22;44257;44.804;10.220;2022-10-16T04:47:15;16.90;99.90
58469;DHT22;44257;44.804;10.220;2022-10-16T04:49:41;16.80;99.90
58469;DHT22;44257;44.804;10.220;2022-10-16T04:52:07;16.70;99.90
58469;DHT22;44257;44.804;10.220;2022-10-16T04:54:35;16.60;99.90
58469;DHT22;44257;44.804;10.220;2022-10-16T04:57:01;16.50;99.90
58469;DHT22;44257;44.804;10.220;2022-10-16T04:59:26;16.50;99.90
58469;DHT22;44257;44.804;10.220;2022-10-16T05:01:52;16.40;99.90
58469;DHT22;44257;44.804;10.220;2022-10-16T05:04:18;16.40;99.90
58469;DHT22;44257;44.804;10.220;2022-10-16T05:06:44;16.30;99.90
58469;DHT22;44257;44.804;10.220;2022-10-16T05:09:10;16.30;99.90
58469;DHT22;44257;44.804;10.220;2022-10-16T05:11:36;16.30;99.90
58469;DHT22;44257;44.804;10.220;2022-10-16T05:14:02;16.30;99.90
58469;DHT22;44257;44.804;10.220;2022-10-16T05:16:28;16.40;99.90
58469;DHT22;44257;44.804;10.220;2022-10-16T05:18:55;16.40;99.90
58469;DHT22;44257;44.804;10.220;2022-10-16T05:21:22;16.30;99.90
58469;DHT22;44257;44.804;10.220;2022-10-16T05:23:48;16.30;99.90
58469;DHT22;44257;44.804;10.220;2022-10-16T05:26:13;16.30;99.90
58469;DHT22;44257;44.804;10.220;2022-10-16T05:28:39;16.20;99.90
58469;DHT22;44257;44.804;10.220;2022-10-16T05:31:06;16.20;99.90
58469;DHT22;44257;44.804;10.220;2022-10-16T05:33:32;16.20;99.90
58469;DHT22;44257;44.804;10.220;2022-10-16T05:36:16;16.20;99.90
58469;DHT22;44257;44.804;10.220;2022-10-16T05:38:43;16.20;99.90
58469;DHT22;44257;44.804;10.220;2022-10-16T05:41:09;16.10;99.90
58469;DHT22;44257;44.804;10.220;2022-10-16T05:43:35;16.10;99.90
58469;DHT22;44257;44.804;10.220;2022-10-16T05:46:04;16.10;99.90
58469;DHT22;44257;44.804;10.220;2022-10-16T05:48:30;16.10;99.90
58469;DHT22;44257;44.804;10.220;2022-10-16T05:51:02;16.10;99.90
58469;DHT22;44257;44.804;10.220;2022-10-16T05:53:31;16.10;99.90
58469;DHT22;44257;44.804;10.220;2022-10-16T05:55:58;16.10;99.90
58469;DHT22;44257;44.804;10.220;2022-10-16T05:58:27;16.20;99.90
58469;DHT22;44257;44.804;10.220;2022-10-16T06:00:58;16.20;99.90
58469;DHT22;44257;44.804;10.220;2022-10-16T06:03:24;16.30;99.90
58469;DHT22;44257;44.804;10.220;2022-10-16T06:05:50;16.40;99.90
58469;DHT22;44257;44.804;10.220;2022-10-16T06:08:17;16.50;99.90
58469;DHT22;44257;44.804;10.220;2022-10-16T06:10:45;16.60;99.90
58469;DHT22;44257;44.804;10.220;2022-10-16T06:13:11;16.60;99.90
58469;DHT22;44257;44.804;10.220;2022-10-16T06:15:38;16.70;99.90
58469;DHT22;44257;44.804;10.220;2022-10-16T06:18:05;16.70;99.90
58469;DHT22;44257;44.804;10.220;2022-10-16T06:20:31;16.80;99.90
58469;DHT22;44257;44.804;10.220;2022-10-16T06:22:57;16.90;99.90
58469;DHT22;44257;44.804;10.220;2022-10-16T06:25:22;16.90;99.90
58469;DHT22;44257;44.804;10.220;2022-10-16T06:27:48;17.00;99.90
58469;DHT22;44257;44.804;10.220;2022-10-16T06:30:14;17.00;99.90
58469;DHT22;44257;44.804;10.220;2022-10-16T06:32:40;17.10;99.90
58469;DHT22;44257;44.804;10.220;2022-10-16T06:35:06;17.20;99.90
58469;DHT22;44257;44.804;10.220;2022-10-16T06:37:33;17.20;99.90
58469;DHT22;44257;44.804;10.220;2022-10-16T06:39:59;17.20;99.90
58469;DHT22;44257;44.804;10.220;2022-10-16T06:42:25;17.30;99.90
58469;DHT22;44257;44.804;10.220;2022-10-16T06:44:51;17.40;99.90
58469;DHT22;44257;44.804;10.220;2022-10-16T06:47:17;17.50;99.90
58469;DHT22;44257;44.804;10.220;2022-10-16T06:49:43;17.50;99.90
58469;DHT22;44257;44.804;10.220;2022-10-16T06:52:09;17.60;99.90
58469;DHT22;44257;44.804;10.220;2022-10-16T06:54:35;17.70;99.90
58469;DHT22;44257;44.804;10.220;2022-10-16T06:57:00;17.80;99.90
58469;DHT22;44257;44.804;10.220;2022-10-16T06:59:27;17.80;99.90
58469;DHT22;44257;44.804;10.220;2022-10-16T07:01:53;17.90;99.90
58469;DHT22;44257;44.804;10.220;2022-10-16T07:04:19;17.90;99.90
58469;DHT22;44257;44.804;10.220;2022-10-16T07:06:44;18.00;99.90
58469;DHT22;44257;44.804;10.220;2022-10-16T07:09:10;18.10;99.90
58469;DHT22;44257;44.804;10.220;2022-10-16T07:11:38;18.10;99.90
58469;DHT22;44257;44.804;10.220;2022-10-16T07:14:04;18.10;99.90
58469;DHT22;44257;44.804;10.220;2022-10-16T07:16:32;18.10;99.90
58469;DHT22;44257;44.804;10.220;2022-10-16T07:18:59;18.20;99.90
58469;DHT22;44257;44.804;10.220;2022-10-16T07:21:28;18.20;99.90
58469;DHT22;44257;44.804;10.220;2022-10-16T07:23:58;18.20;99.90
58469;DHT22;44257;44.804;10.220;2022-10-16T07:26:26;18.20;99.90
58469;DHT22;44257;44.804;10.220;2022-10-16T07:28:52;18.40;99.90
58469;DHT22;44257;44.804;10.220;2022-10-16T07:31:19;18.50;99.90
58469;DHT22;44257;44.804;10.220;2022-10-16T07:33:46;18.50;99.90
58469;DHT22;44257;44.804;10.220;2022-10-16T07:36:15;18.50;99.90
58469;DHT22;44257;44.804;10.220;2022-10-16T07:38:41;18.60;99.90
58469;DHT22;44257;44.804;10.220;2022-10-16T07:41:11;18.70;99.90
58469;DHT22;44257;44.804;10.220;2022-10-16T07:43:38;18.80;99.90
58469;DHT22;44257;44.804;10.220;2022-10-16T07:46:04;18.90;99.90
58469;DHT22;44257;44.804;10.220;2022-10-16T07:48:32;19.00;99.90
58469;DHT22;44257;44.804;10.220;2022-10-16T07:51:04;19.10;99.90
58469;DHT22;44257;44.804;10.220;2022-10-16T07:53:31;19.20;99.90
58469;DHT22;44257;44.804;10.220;2022-10-16T07:56:02;19.30;99.90
58469;DHT22;44257;44.804;10.220;2022-10-16T07:58:28;19.50;99.90
58469;DHT22;44257;44.804;10.220;2022-10-16T08:00:56;19.50;99.90
58469;DHT22;44257;44.804;10.220;2022-10-16T08:03:23;19.60;99.90
58469;DHT22;44257;44.804;10.220;2022-10-16T08:05:49;19.70;99.90
58469;DHT22;44257;44.804;10.220;2022-10-16T08:08:19;19.80;99.90
58469;DHT22;44257;44.804;10.220;2022-10-16T08:10:45;20.00;99.90
58469;DHT22;44257;44.804;10.220;2022-10-16T08:13:11;20.10;99.90
58469;DHT22;44257;44.804;10.220;2022-10-16T08:15:41;20.10;99.90
58469;DHT22;44257;44.804;10.220;2022-10-16T08:18:07;20.30;99.90
58469;DHT22;44257;44.804;10.220;2022-10-16T08:20:33;20.40;99.90
58469;DHT22;44257;44.804;10.220;2022-10-16T08:22:59;20.40;99.90
58469;DHT22;44257;44.804;10.220;2022-10-16T08:25:26;20.50;99.90
58469;DHT22;44257;44.804;10.220;2022-10-16T08:27:52;20.60;99.90
58469;DHT22;44257;44.804;10.220;2022-10-16T08:30:19;20.80;99.90
58469;DHT22;44257;44.804;10.220;2022-10-16T08:32:45;20.90;99.90
58469;DHT22;44257;44.804;10.220;2022-10-16T08:35:11;21.00;99.90
58469;DHT22;44257;44.804;10.220;2022-10-16T08:37:38;21.10;99.90
58469;DHT22;44257;44.804;10.220;2022-10-16T08:40:06;21.20;99.90
58469;DHT22;44257;44.804;10.220;2022-10-16T08:48:04;21.40;99.90
58469;DHT22;44257;44.804;10.220;2022-10-16T08:50:32;21.50;99.90
58469;DHT22;44257;44.804;10.220;2022-10-16T08:53:04;21.60;99.90
58469;DHT22;44257;44.804;10.220;2022-10-16T08:55:50;21.50;99.90
58469;DHT22;44257;44.804;10.220;2022-10-16T09:00:46;21.50;99.90
58469;DHT22;44257;44.804;10.220;2022-10-16T09:03:23;21.60;99.90
58469;DHT22;44257;44.804;10.220;2022-10-16T09:14:50;22.10;99.90
58469;DHT22;44257;44.804;10.220;2022-10-16T09:22:42;22.10;99.90
58469;DHT22;44257;44.804;10.220;2022-10-16T09:25:14;22.00;99.90
58469;DHT22;44257;44.804;10.220;2022-10-16T09:27:40;22.00;99.90
58469;DHT22;44257;44.804;10.220;2022-10-16T09:30:16;22.00;99.90
58469;DHT22;44257;44.804;10.220;2022-10-16T09:32:43;22.10;99.90
58469;DHT22;44257;44.804;10.220;2022-10-16T09:35:21;22.10;99.90
58469;DHT22;44257;44.804;10.220;2022-10-16T09:37:50;22.20;99.90
58469;DHT22;44257;44.804;10.220;2022-10-16T09:40:36;22.30;99.90
58469;DHT22;44257;44.804;10.220;2022-10-16T09:48:39;22.30;99.90
58469;DHT22;44257;44.804;10.220;2022-10-16T09:54:01;22.30;99.90
58469;DHT22;44257;44.804;10.220;2022-10-16T09:56:32;22.30;99.90
58469;DHT22;44257;44.804;10.220;2022-10-16T09:59:01;22.50;99.90
58469;DHT22;44257;44.804;10.220;2022-10-16T10:01:37;22.70;99.90
58469;DHT22;44257;44.804;10.220;2022-10-16T10:04:04;22.70;99.90
58469;DHT22;44257;44.804;10.220;2022-10-16T10:06:44;22.70;99.90
58469;DHT22;44257;44.804;10.220;2022-10-16T10:09:20;22.60;99.90
58469;DHT22;44257;44.804;10.220;2022-10-16T10:11:51;22.50;99.90
58469;DHT22;44257;44.804;10.220;2022-10-16T10:16:46;22.70;99.90
58469;DHT22;44257;44.804;10.220;2022-10-16T10:19:21;22.70;99.90
58469;DHT22;44257;44.804;10.220;2022-10-16T10:21:49;22.80;99.90
58469;DHT22;44257;44.804;10.220;2022-10-16T10:24:16;22.90;99.90
58469;DHT22;44257;44.804;10.220;2022-10-16T10:27:19;23.00;99.90
58469;DHT22;44257;44.804;10.220;2022-10-16T10:30:05;23.00;99.90
58469;DHT22;44257;44.804;10.220;2022-10-16T10:35:40;23.10;99.90
58469;DHT22;44257;44.804;10.220;2022-10-16T10:46:42;23.70;99.90
58469;DHT22;44257;44.804;10.220;2022-10-16T10:49:16;23.70;99.90
58469;DHT22;44257;44.804;10.220;2022-10-16T10:57:28;24.00;99.90
58469;DHT22;44257;44.804;10.220;2022-10-16T11:02:41;24.00;99.90
58469;DHT22;44257;44.804;10.220;2022-10-16T11:08:45;24.10;99.90
58469;DHT22;44257;44.804;10.220;2022-10-16T11:11:38;24.10;99.90
58469;DHT22;44257;44.804;10.220;2022-10-16T11:14:11;24.10;99.90
58469;DHT22;44257;44.804;10.220;2022-10-16T11:16:52;24.10;99.90
58469;DHT22;44257;44.804;10.220;2022-10-16T11:24:58;24.40;99.90
58469;DHT22;44257;44.804;10.220;2022-10-16T11:30:05;24.50;99.90
58469;DHT22;44257;44.804;10.220;2022-10-16T11:32:40;24.30;99.90
58469;DHT22;44257;44.804;10.220;2022-10-16T11:35:19;24.20;99.90
58469;DHT22;44257;44.804;10.220;2022-10-16T11:37:49;24.30;99.90
58469;DHT22;44257;44.804;10.220;2022-10-16T11:40:24;24.40;99.90
58469;DHT22;44257;44.804;10.220;2022-10-16T11:43:04;24.50;99.90
58469;DHT22;44257;44.804;10.220;2022-10-16T11:45:38;24.50;99.90
58469;DHT22;44257;44.804;10.220;2022-10-16T11:50:39;24.60;99.90
58469;DHT22;44257;44.804;10.220;2022-10-16T11:56:25;24.60;99.90
58469;DHT22;44257;44.804;10.220;2022-10-16T11:59:08;24.70;99.90
58469;DHT22;44257;44.804;10.220;2022-10-16T12:01:48;24.70;99.90
58469;DHT22;44257;44.804;10.220;2022-10-16T12:07:21;25.10;99.90
58469;DHT22;44257;44.804;10.220;2022-10-16T12:09:48;25.10;99.90
58469;DHT22;44257;44.804;10.220;2022-10-16T12:12:37;25.10;99.90
58469;DHT22;44257;44.804;10.220;2022-10-16T12:15:26;24.90;99.90
58469;DHT22;44257;44.804;10.220;2022-10-16T12:17:53;24.90;99.90
58469;DHT22;44257;44.804;10.220;2022-10-16T12:20:31;24.90;99.90
58469;DHT22;44257;44.804;10.220;2022-10-16T12:23:00;24.80;99.90
58469;DHT22;44257;44.804;10.220;2022-10-16T12:25:36;24.60;99.90
58469;DHT22;44257;44.804;10.220;2022-10-16T12:28:19;24.50;99.90
58469;DHT22;44257;44.804;10.220;2022-10-16T12:30:57;24.40;99.90
58469;DHT22;44257;44.804;10.220;2022-10-16T12:33:24;24.40;99.90
58469;DHT22;44257;44.804;10.220;2022-10-16T12:35:51;24.60;99.90
58469;DHT22;44257;44.804;10.220;2022-10-16T12:38:30;24.80;99.90
58469;DHT22;44257;44.804;10.220;2022-10-16T12:41:08;25.10;99.90
58469;DHT22;44257;44.804;10.220;2022-10-16T12:43:43;25.40;99.90
58469;DHT22;44257;44.804;10.220;2022-10-16T12:48:40;25.60;99.90
58469;DHT22;44257;44.804;10.220;2022-10-16T13:07:36;26.20;99.90
58469;DHT22;44257;44.804;10.220;2022-10-16T13:10:40;26.20;99.50
58469;DHT22;44257;44.804;10.220;2022-10-16T13:27:35;25.80;98.60
58469;DHT22;44257;44.804;10.220;2022-10-16T13:30:16;25.80;98.60
58469;DHT22;44257;44.804;10.220;2022-10-16T13:33:13;25.70;98.40
58469;DHT22;44257;44.804;10.220;2022-10-16T13:35:51;25.80;99.00
58469;DHT22;44257;44.804;10.220;2022-10-16T13:38:20;26.00;98.20
58469;DHT22;44257;44.804;10.220;2022-10-16T13:43:54;26.70;97.70
58469;DHT22;44257;44.804;10.220;2022-10-16T13:46:23;26.90;96.00
58469;DHT22;44257;44.804;10.220;2022-10-16T13:48:57;26.80;96.60
58469;DHT22;44257;44.804;10.220;2022-10-16T13:51:24;26.80;97.70
58469;DHT22;44257;44.804;10.220;2022-10-16T13:53:50;26.80;96.10
58469;DHT22;44257;44.804;10.220;2022-10-16T13:56:21;26.60;95.70
58469;DHT22;44257;44.804;10.220;2022-10-16T13:59:02;26.40;95.90
58469;DHT22;44257;44.804;10.220;2022-10-16T14:01:34;26.20;96.20
58469;DHT22;44257;44.804;10.220;2022-10-16T14:04:06;26.20;96.30
58469;DHT22;44257;44.804;10.220;2022-10-16T14:06:33;26.20;96.50
58469;DHT22;44257;44.804;10.220;2022-10-16T14:11:52;26.10;96.90
58469;DHT22;44257;44.804;10.220;2022-10-16T14:14:19;26.00;96.80
58469;DHT22;44257;44.804;10.220;2022-10-16T14:16:47;26.00;97.00
58469;DHT22;44257;44.804;10.220;2022-10-16T14:19:20;25.90;97.00
58469;DHT22;44257;44.804;10.220;2022-10-16T14:21:49;25.80;97.30
58469;DHT22;44257;44.804;10.220;2022-10-16T14:24:42;25.70;97.70
58469;DHT22;44257;44.804;10.220;2022-10-16T14:27:23;25.80;97.80
58469;DHT22;44257;44.804;10.220;2022-10-16T14:29:50;25.80;97.40
58469;DHT22;44257;44.804;10.220;2022-10-16T14:32:23;25.80;97.80
58469;DHT22;44257;44.804;10.220;2022-10-16T14:34:53;25.70;98.10
58469;DHT22;44257;44.804;10.220;2022-10-16T14:37:26;25.80;98.00
58469;DHT22;44257;44.804;10.220;2022-10-16T14:39:53;25.80;98.40
58469;DHT22;44257;44.804;10.220;2022-10-16T14:42:21;26.00;98.20
58469;DHT22;44257;44.804;10.220;2022-10-16T14:44:50;26.20;97.90
58469;DHT22;44257;44.804;10.220;2022-10-16T14:47:22;26.30;98.00
58469;DHT22;44257;44.804;10.220;2022-10-16T14:49:52;26.40;96.90
58469;DHT22;44257;44.804;10.220;2022-10-16T14:52:20;26.30;96.90
58469;DHT22;44257;44.804;10.220;2022-10-16T14:54:49;26.10;97.70
58469;DHT22;44257;44.804;10.220;2022-10-16T14:57:18;26.00;97.60
58469;DHT22;44257;44.804;10.220;2022-10-16T14:59:45;25.90;97.40
58469;DHT22;44257;44.804;10.220;2022-10-16T15:02:31;25.90;97.40
58469;DHT22;44257;44.804;10.220;2022-10-16T15:05:01;25.90;97.30
58469;DHT22;44257;44.804;10.220;2022-10-16T15:07:30;25.90;97.80
58469;DHT22;44257;44.804;10.220;2022-10-16T15:09:56;25.80;97.70
58469;DHT22;44257;44.804;10.220;2022-10-16T15:12:23;25.80;97.70
58469;DHT22;44257;44.804;10.220;2022-10-16T15:14:49;25.80;97.50
58469;DHT22;44257;44.804;10.220;2022-10-16T15:17:15;25.80;97.40
58469;DHT22;44257;44.804;10.220;2022-10-16T15:19:41;25.70;97.40
58469;DHT22;44257;44.804;10.220;2022-10-16T15:22:10;25.60;97.50
58469;DHT22;44257;44.804;10.220;2022-10-16T15:24:36;25.50;96.80
58469;DHT22;44257;44.804;10.220;2022-10-16T15:27:02;25.40;97.70
58469;DHT22;44257;44.804;10.220;2022-10-16T15:29:28;25.30;97.90
58469;DHT22;44257;44.804;10.220;2022-10-16T15:31:54;25.20;98.10
58469;DHT22;44257;44.804;10.220;2022-10-16T15:34:20;25.00;98.50
58469;DHT22;44257;44.804;10.220;2022-10-16T15:36:46;24.90;98.50
58469;DHT22;44257;44.804;10.220;2022-10-16T15:39:14;24.80;98.60
58469;DHT22;44257;44.804;10.220;2022-10-16T15:41:40;24.70;99.10
58469;DHT22;44257;44.804;10.220;2022-10-16T15:44:07;24.60;99.70
58469;DHT22;44257;44.804;10.220;2022-10-16T15:46:33;24.50;99.90
58469;DHT22;44257;44.804;10.220;2022-10-16T15:49:00;24.40;99.90
58469;DHT22;44257;44.804;10.220;2022-10-16T15:51:27;24.20;99.90
58469;DHT22;44257;44.804;10.220;2022-10-16T15:53:58;24.10;99.90
58469;DHT22;44257;44.804;10.220;2022-10-16T15:56:27;24.00;99.90
58469;DHT22;44257;44.804;10.220;2022-10-16T15:58:54;23.80;99.90
58469;DHT22;44257;44.804;10.220;2022-10-16T16:01:21;23.70;99.90
58469;DHT22;44257;44.804;10.220;2022-10-16T16:03:47;23.60;99.90
58469;DHT22;44257;44.804;10.220;2022-10-16T16:06:14;23.40;99.90
58469;DHT22;44257;44.804;10.220;2022-10-16T16:08:40;23.30;99.90
58469;DHT22;44257;44.804;10.220;2022-10-16T16:11:14;23.10;99.90
58469;DHT22;44257;44.804;10.220;2022-10-16T16:13:40;22.90;99.90
58469;DHT22;44257;44.804;10.220;2022-10-16T16:16:09;22.80;99.90
58469;DHT22;44257;44.804;10.220;2022-10-16T16:18:35;22.60;99.90
58469;DHT22;44257;44.804;10.220;2022-10-16T16:21:02;22.40;99.90
58469;DHT22;44257;44.804;10.220;2022-10-16T16:23:28;22.20;99.90
58469;DHT22;44257;44.804;10.220;2022-10-16T16:26:04;22.10;99.90
58469;DHT22;44257;44.804;10.220;2022-10-16T16:28:31;21.90;99.90
58469;DHT22;44257;44.804;10.220;2022-10-16T16:30:57;21.70;99.90
58469;DHT22;44257;44.804;10.220;2022-10-16T16:33:23;21.60;99.90
58469;DHT22;44257;44.804;10.220;2022-10-16T16:35:49;21.50;99.90
58469;DHT22;44257;44.804;10.220;2022-10-16T16:38:15;21.30;99.90
58469;DHT22;44257;44.804;10.220;2022-10-16T16:40:41;21.20;99.90
58469;DHT22;44257;44.804;10.220;2022-10-16T16:43:07;21.00;99.90
58469;DHT22;44257;44.804;10.220;2022-10-16T16:45:36;20.90;99.90
58469;DHT22;44257;44.804;10.220;2022-10-16T16:48:02;20.80;99.90
58469;DHT22;44257;44.804;10.220;2022-10-16T16:50:28;20.60;99.90
58469;DHT22;44257;44.804;10.220;2022-10-16T16:52:54;20.50;99.90
58469;DHT22;44257;44.804;10.220;2022-10-16T16:55:20;20.30;99.90
58469;DHT22;44257;44.804;10.220;2022-10-16T16:57:48;20.30;99.90
58469;DHT22;44257;44.804;10.220;2022-10-16T17:00:14;20.10;99.90
58469;DHT22;44257;44.804;10.220;2022-10-16T17:02:40;20.00;99.90
58469;DHT22;44257;44.804;10.220;2022-10-16T17:05:09;19.90;99.90
58469;DHT22;44257;44.804;10.220;2022-10-16T17:07:35;19.80;99.90
58469;DHT22;44257;44.804;10.220;2022-10-16T17:10:02;19.70;99.90
58469;DHT22;44257;44.804;10.220;2022-10-16T17:12:29;19.60;99.90
58469;DHT22;44257;44.804;10.220;2022-10-16T17:14:56;19.50;99.90
58469;DHT22;44257;44.804;10.220;2022-10-16T17:17:22;19.40;99.90
58469;DHT22;44257;44.804;10.220;2022-10-16T17:19:49;19.30;99.90
58469;DHT22;44257;44.804;10.220;2022-10-16T17:22:15;19.30;99.90
58469;DHT22;44257;44.804;10.220;2022-10-16T17:24:42;19.20;99.90
58469;DHT22;44257;44.804;10.220;2022-10-16T17:27:08;19.10;99.90
58469;DHT22;44257;44.804;10.220;2022-10-16T17:29:35;19.00;99.90
58469;DHT22;44257;44.804;10.220;2022-10-16T17:32:00;18.90;99.90
58469;DHT22;44257;44.804;10.220;2022-10-16T17:34:27;18.80;99.90
58469;DHT22;44257;44.804;10.220;2022-10-16T17:36:53;18.70;99.90